createdAt,value
2023-03-21T00:01:05.391Z,69.30
2023-03-21T00:03:38.183Z,68.30
2023-03-21T00:06:13.133Z,59.80
2023-03-21T00:08:46.096Z,68.60
2023-03-21T00:11:23.185Z,71.10
2023-03-21T00:13:58.789Z,77.00
2023-03-21T00:16:36.104Z,60.70
2023-03-21T00:19:14.744Z,54.20
2023-03-21T00:22:06.024Z,62.10
2023-03-21T00:24:40.289Z,66.70
2023-03-21T00:27:39.773Z,73.50
2023-03-21T00:30:08.103Z,70.80
2023-03-21T00:32:54.981Z,62.50
2023-03-21T00:35:57.899Z,59.90
2023-03-21T00:38:24.556Z,76.50
2023-03-21T00:41:01.931Z,78.80
2023-03-21T00:43:38.074Z,74.30
2023-03-21T00:46:11.032Z,70.10
2023-03-21T00:48:46.226Z,70.80
2023-03-21T00:51:26.787Z,66.00
2023-03-21T00:54:00.010Z,73.70
2023-03-21T00:56:36.172Z,72.30
2023-03-21T00:59:08.784Z,69.70
2023-03-21T01:01:42.326Z,77.20
2023-03-21T01:04:16.985Z,68.90
2023-03-21T01:06:49.887Z,74.60
2023-03-21T01:09:24.993Z,76.40
2023-03-21T01:11:57.662Z,64.50
2023-03-21T01:14:30.643Z,61.10
2023-03-21T01:17:03.452Z,78.50
2023-03-21T01:19:50.764Z,88.80
2023-03-21T01:22:24.668Z,78.60
2023-03-21T01:25:08.864Z,69.80
2023-03-21T01:27:53.396Z,76.70
2023-03-21T01:30:28.693Z,64.00
2023-03-21T01:33:04.129Z,68.50
2023-03-21T01:35:50.520Z,70.70
2023-03-21T01:41:01.109Z,62.70
2023-03-21T01:43:40.953Z,66.70
2023-03-21T01:46:51.833Z,65.50
2023-03-21T01:49:47.137Z,63.30
2023-03-21T01:52:40.054Z,70.30
2023-03-21T01:55:17.180Z,65.50
2023-03-21T01:58:05.811Z,72.50
2023-03-21T02:00:48.935Z,66.80
2023-03-21T02:03:39.257Z,66.40
2023-03-21T02:06:48.133Z,62.40
2023-03-21T02:09:48.803Z,63.10
2023-03-21T02:12:27.065Z,64.90
2023-03-21T02:15:01.842Z,63.50
2023-03-21T02:17:44.435Z,66.30
2023-03-21T02:20:54.894Z,72.90
2023-03-21T02:24:08.792Z,72.70
2023-03-21T02:27:04.400Z,64.00
2023-03-21T02:30:02.264Z,60.80
2023-03-21T02:32:41.913Z,68.80
2023-03-21T02:35:23.643Z,66.10
2023-03-21T02:38:00.507Z,67.70
2023-03-21T02:40:39.381Z,66.90
2023-03-21T02:43:23.118Z,72.30
2023-03-21T02:45:59.406Z,66.70
2023-03-21T02:48:44.764Z,70.70
2023-03-21T02:51:23.615Z,70.60
2023-03-21T02:54:24.948Z,64.90
2023-03-21T02:56:53.850Z,64.80
2023-03-21T02:59:26.856Z,72.60
2023-03-21T03:02:00.368Z,73.40
2023-03-21T03:04:33.978Z,71.20
2023-03-21T03:07:24.388Z,79.30
2023-03-21T03:10:09.347Z,78.30
2023-03-21T03:12:46.618Z,68.40
2023-03-21T03:15:28.562Z,63.90
2023-03-21T03:18:03.853Z,73.70
2023-03-21T03:20:44.788Z,64.20
2023-03-21T03:23:25.539Z,60.70
2023-03-21T03:26:00.191Z,61.10
2023-03-21T03:28:34.787Z,49.60
2023-03-21T03:31:12.439Z,47.60
2023-03-21T03:33:55.820Z,42.40
2023-03-21T03:36:32.413Z,44.80
2023-03-21T03:39:11.940Z,46.10
2023-03-21T03:42:18.316Z,48.80
2023-03-21T03:44:46.407Z,42.00
2023-03-21T03:47:32.829Z,47.30
2023-03-21T03:50:10.705Z,36.70
2023-03-21T03:52:55.600Z,43.20
2023-03-21T03:55:34.853Z,46.80
2023-03-21T04:00:56.889Z,42.20
2023-03-21T04:03:47.859Z,48.80
2023-03-21T04:06:22.605Z,45.80
2023-03-21T04:08:56.700Z,42.00
2023-03-21T04:11:29.559Z,49.10
2023-03-21T04:14:02.802Z,41.60
2023-03-21T04:16:38.576Z,44.60
2023-03-21T04:19:12.470Z,48.20
2023-03-21T04:21:45.281Z,48.40
2023-03-21T04:24:21.436Z,51.50
2023-03-21T04:26:55.466Z,46.60
2023-03-21T04:29:43.911Z,47.50
2023-03-21T04:32:44.360Z,42.40
2023-03-21T04:35:20.386Z,43.70
2023-03-21T04:37:53.437Z,41.20
2023-03-21T04:40:26.596Z,50.30
2023-03-21T04:43:01.781Z,39.50
2023-03-21T04:45:34.707Z,41.20
2023-03-21T04:48:09.448Z,44.40
2023-03-21T04:50:46.560Z,38.50
2023-03-21T04:53:19.660Z,44.60
2023-03-21T04:55:55.564Z,52.60
2023-03-21T04:58:31.861Z,52.10
2023-03-21T05:01:06.261Z,48.60
2023-03-21T05:03:40.786Z,60.70
2023-03-21T05:06:14.464Z,60.20
2023-03-21T05:08:48.708Z,67.90
2023-03-21T05:11:21.392Z,62.90
2023-03-21T05:13:54.369Z,60.80
2023-03-21T05:16:31.022Z,63.80
2023-03-21T05:19:05.519Z,66.80
2023-03-21T05:21:43.787Z,67.40
2023-03-21T05:24:22.581Z,64.70
2023-03-21T05:26:56.532Z,64.80
2023-03-21T05:29:34.307Z,61.30
2023-03-21T05:32:09.036Z,71.40
2023-03-21T05:34:42.051Z,70.80
2023-03-21T05:37:18.257Z,65.60
2023-03-21T05:39:53.594Z,71.90
2023-03-21T05:42:34.394Z,70.20
2023-03-21T05:45:15.030Z,65.50
2023-03-21T05:47:51.839Z,69.00
2023-03-21T05:50:25.244Z,69.70
2023-03-21T05:53:12.451Z,57.80
2023-03-21T05:55:45.866Z,75.50
2023-03-21T05:58:25.814Z,65.40
2023-03-21T06:00:59.733Z,61.60
2023-03-21T06:03:37.641Z,74.60
2023-03-21T06:06:18.927Z,96.40
2023-03-21T06:09:00.717Z,65.10
2023-03-21T06:11:34.800Z,73.70
2023-03-21T06:14:23.124Z,82.20
2023-03-21T06:17:11.216Z,72.10
2023-03-21T06:19:49.947Z,80.10
2023-03-21T06:22:35.502Z,86.10
2023-03-21T06:25:11.341Z,80.60
2023-03-21T06:27:44.078Z,81.10
2023-03-21T06:30:20.202Z,99.80
2023-03-21T06:33:25.258Z,99.00
2023-03-21T06:35:58.768Z,106.10
2023-03-21T06:38:32.125Z,92.20
2023-03-21T06:41:05.320Z,105.00
2023-03-21T06:43:43.067Z,96.50
2023-03-21T06:46:15.920Z,77.10
2023-03-21T06:48:49.247Z,71.40
2023-03-21T06:51:23.920Z,83.50
2023-03-21T06:54:22.838Z,77.30
2023-03-21T06:57:09.132Z,83.50
2023-03-21T06:59:43.255Z,55.20
2023-03-21T07:02:27.725Z,74.00
2023-03-21T07:05:07.900Z,62.20
2023-03-21T07:07:40.641Z,65.40
2023-03-21T07:10:15.975Z,64.60
2023-03-21T07:13:04.450Z,66.80
2023-03-21T07:16:03.443Z,66.20
2023-03-21T07:18:36.212Z,71.40
2023-03-21T07:21:10.513Z,66.50
2023-03-21T07:23:43.703Z,71.60
2023-03-21T07:26:18.734Z,67.60
2023-03-21T07:28:51.993Z,68.00
2023-03-21T07:31:27.124Z,67.70
2023-03-21T07:33:59.797Z,65.10
2023-03-21T07:36:32.861Z,64.00
2023-03-21T07:39:05.759Z,65.60
2023-03-21T07:41:38.538Z,61.90
2023-03-21T07:44:28.052Z,62.00
2023-03-21T07:47:08.045Z,72.80
2023-03-21T07:49:41.204Z,62.30
2023-03-21T07:52:17.119Z,57.70
2023-03-21T07:54:51.682Z,54.00
2023-03-21T07:57:24.393Z,67.10
2023-03-21T07:59:57.045Z,60.70
2023-03-21T08:02:29.904Z,63.10
2023-03-21T08:05:03.398Z,54.50
2023-03-21T08:07:36.430Z,60.80
2023-03-21T08:10:12.124Z,41.80
2023-03-21T08:12:47.964Z,66.30
2023-03-21T08:15:21.234Z,68.40
2023-03-21T08:17:54.072Z,59.00
2023-03-21T08:20:28.473Z,63.50
2023-03-21T08:23:01.238Z,60.40
2023-03-21T08:25:34.057Z,58.20
2023-03-21T08:28:06.903Z,55.20
2023-03-21T08:30:40.227Z,58.70
2023-03-21T08:33:13.635Z,60.00
2023-03-21T08:35:51.143Z,46.30
2023-03-21T08:38:24.833Z,56.70
2023-03-21T08:41:00.100Z,41.30
2023-03-21T08:43:34.795Z,47.90
2023-03-21T08:46:08.174Z,54.10
2023-03-21T08:48:41.422Z,49.90
2023-03-21T08:51:14.117Z,46.80
2023-03-21T08:53:46.875Z,37.50
2023-03-21T08:56:19.690Z,48.10
2023-03-21T08:58:52.582Z,46.40
2023-03-21T09:01:26.468Z,50.50
2023-03-21T09:03:59.350Z,46.00
2023-03-21T09:06:41.212Z,49.70
2023-03-21T09:09:13.893Z,49.20
2023-03-21T09:11:46.597Z,52.10
2023-03-21T09:14:19.306Z,49.00
2023-03-21T09:16:53.389Z,44.90
2023-03-21T09:19:28.117Z,44.00
2023-03-21T09:22:01.607Z,40.60
2023-03-21T09:24:34.707Z,47.30
2023-03-21T09:27:09.464Z,42.30
2023-03-21T09:29:43.801Z,48.30
2023-03-21T09:32:18.622Z,43.30
2023-03-21T09:34:53.413Z,31.30
2023-03-21T09:37:26.818Z,40.10
2023-03-21T09:39:59.530Z,46.50
2023-03-21T09:42:37.834Z,46.90
2023-03-21T09:45:15.879Z,49.40
2023-03-21T09:47:53.744Z,42.70
2023-03-21T09:50:29.025Z,40.40
2023-03-21T09:53:04.141Z,33.10
2023-03-21T09:55:40.382Z,34.60
2023-03-21T09:58:26.780Z,40.70
2023-03-21T10:01:01.403Z,42.50
2023-03-21T10:03:44.132Z,26.70
2023-03-21T10:06:16.896Z,41.10
2023-03-21T10:08:51.179Z,38.30
2023-03-21T10:11:36.952Z,32.00
2023-03-21T10:14:13.819Z,25.00
2023-03-21T10:16:47.224Z,32.50
2023-03-21T10:19:20.991Z,38.70
2023-03-21T10:22:03.671Z,29.50
2023-03-21T10:24:37.041Z,26.00
2023-03-21T10:27:13.822Z,26.30
2023-03-21T10:29:46.949Z,19.60
2023-03-21T10:32:20.611Z,34.70
2023-03-21T10:37:30.280Z,29.90
2023-03-21T10:40:06.739Z,30.20
2023-03-21T10:42:40.738Z,37.20
2023-03-21T10:45:17.731Z,27.40
2023-03-21T10:47:51.995Z,29.80
2023-03-21T10:50:28.401Z,32.30
2023-03-21T10:53:02.334Z,29.20
2023-03-21T10:55:36.731Z,21.10
2023-03-21T10:58:12.417Z,24.10
2023-03-21T11:00:45.503Z,24.20
2023-03-21T11:03:24.933Z,27.00
2023-03-21T11:05:58.943Z,27.60
2023-03-21T11:08:32.556Z,31.70
2023-03-21T11:11:09.912Z,33.80
2023-03-21T11:13:46.165Z,17.80
2023-03-21T11:16:27.573Z,26.30
2023-03-21T11:19:04.377Z,27.80
2023-03-21T11:21:40.233Z,17.20
2023-03-21T11:24:17.291Z,29.80
2023-03-21T11:26:51.605Z,33.60
2023-03-21T11:29:30.735Z,18.30
2023-03-21T11:32:12.857Z,26.00
2023-03-21T11:34:49.046Z,29.80
2023-03-21T11:37:30.095Z,24.40
2023-03-21T11:40:19.305Z,20.60
2023-03-21T11:42:53.456Z,22.30
2023-03-21T11:45:27.023Z,22.30
2023-03-21T11:48:01.708Z,25.50
2023-03-21T11:50:36.662Z,18.30
2023-03-21T11:53:27.243Z,21.60
2023-03-21T11:56:09.516Z,21.60
2023-03-21T11:58:51.560Z,27.80
2023-03-21T12:01:28.186Z,28.30
2023-03-21T12:04:06.184Z,18.30
2023-03-21T12:06:41.083Z,21.50
2023-03-21T12:09:21.267Z,21.00
2023-03-21T12:12:01.395Z,22.90
2023-03-21T12:14:38.858Z,20.40
2023-03-21T12:17:17.400Z,14.00
2023-03-21T12:20:02.410Z,16.70
2023-03-21T12:22:37.847Z,16.80
2023-03-21T12:25:12.474Z,14.20
2023-03-21T12:27:50.795Z,16.20
2023-03-21T12:30:35.939Z,17.20
2023-03-21T12:33:19.772Z,15.10
2023-03-21T12:36:00.746Z,18.00
2023-03-21T12:38:38.073Z,14.70
2023-03-21T12:41:20.930Z,14.60
2023-03-21T12:43:55.556Z,16.60
2023-03-21T12:46:30.716Z,18.20
2023-03-21T12:49:04.827Z,19.00
2023-03-21T12:51:38.682Z,20.90
2023-03-21T12:54:16.761Z,13.20
2023-03-21T12:56:53.627Z,12.70
2023-03-21T12:59:31.576Z,17.30
2023-03-21T13:02:11.628Z,12.60
2023-03-21T13:04:51.674Z,15.10
2023-03-21T13:07:25.792Z,21.00
2023-03-21T13:10:02.454Z,15.60
2023-03-21T13:12:46.552Z,15.00
2023-03-21T13:15:33.884Z,15.10
2023-03-21T13:18:12.200Z,14.40
2023-03-21T13:20:47.770Z,14.70
2023-03-21T13:23:20.560Z,15.10
2023-03-21T13:25:56.286Z,15.20
2023-03-21T13:28:31.433Z,13.30
2023-03-21T13:31:20.985Z,12.90
2023-03-21T13:33:54.787Z,16.10
2023-03-21T13:36:29.547Z,15.00
2023-03-21T13:39:05.854Z,16.00
2023-03-21T13:41:39.725Z,12.90
2023-03-21T13:44:24.384Z,16.40
2023-03-21T13:47:03.616Z,11.30
2023-03-21T13:49:37.141Z,13.70
2023-03-21T13:52:29.093Z,11.10
2023-03-21T13:55:01.986Z,15.30
2023-03-21T13:57:41.663Z,9.70
2023-03-21T14:00:24.420Z,15.80
2023-03-21T14:03:07.430Z,11.80
2023-03-21T14:05:40.400Z,15.40
2023-03-21T14:08:31.243Z,17.90
2023-03-21T14:11:12.208Z,13.50
2023-03-21T14:13:51.285Z,19.70
2023-03-21T14:16:25.807Z,14.00
2023-03-21T14:19:01.435Z,15.10
2023-03-21T14:21:39.316Z,11.00
2023-03-21T14:24:15.302Z,13.20
2023-03-21T14:26:49.520Z,15.10
2023-03-21T14:29:27.428Z,14.40
2023-03-21T14:32:00.969Z,15.90
2023-03-21T14:34:36.578Z,12.90
2023-03-21T14:37:13.697Z,14.30
2023-03-21T14:39:46.263Z,17.10
2023-03-21T14:42:21.298Z,13.80
2023-03-21T14:45:03.846Z,10.20
2023-03-21T14:47:38.230Z,17.60
2023-03-21T14:50:13.466Z,11.20
2023-03-21T14:52:48.070Z,10.70
2023-03-21T14:55:21.069Z,11.20
2023-03-21T14:57:54.545Z,10.30
2023-03-21T15:00:29.403Z,10.10
2023-03-21T15:03:03.316Z,12.90
2023-03-21T15:05:42.644Z,14.90
2023-03-21T15:08:18.639Z,11.60
2023-03-21T15:11:06.978Z,11.10
2023-03-21T15:13:45.598Z,12.70
2023-03-21T15:16:19.252Z,15.30
2023-03-21T15:18:52.023Z,14.50
2023-03-21T15:21:27.972Z,16.80
2023-03-21T15:24:02.061Z,14.20
2023-03-21T15:26:37.749Z,17.50
2023-03-21T15:29:10.943Z,13.60
2023-03-21T15:31:44.121Z,19.20
2023-03-21T15:34:22.762Z,17.60
2023-03-21T15:36:59.616Z,23.30
2023-03-21T15:39:40.359Z,22.50
2023-03-21T15:42:27.392Z,26.60
2023-03-21T15:45:12.003Z,21.30
2023-03-21T15:47:55.881Z,30.30
2023-03-21T15:50:36.589Z,24.30
2023-03-21T15:53:13.282Z,25.30
2023-03-21T15:55:50.201Z,29.90
2023-03-21T15:58:34.954Z,27.80
2023-03-21T16:01:09.943Z,25.80
2023-03-21T16:03:46.233Z,25.60
2023-03-21T16:06:22.011Z,29.40
2023-03-21T16:08:56.882Z,20.30
2023-03-21T16:11:30.107Z,24.80
2023-03-21T16:14:02.663Z,23.70
2023-03-21T16:16:35.950Z,19.90
2023-03-21T16:19:17.063Z,18.90
2023-03-21T16:21:50.245Z,21.10
2023-03-21T16:24:23.259Z,17.90
2023-03-21T16:26:58.470Z,18.40
2023-03-21T16:29:31.676Z,22.70
2023-03-21T16:32:06.811Z,15.90
2023-03-21T16:34:42.221Z,19.70
2023-03-21T16:37:21.278Z,20.20
2023-03-21T16:39:54.334Z,27.80
2023-03-21T16:42:27.131Z,28.80
2023-03-21T16:45:03.338Z,20.00
2023-03-21T16:47:37.133Z,21.80
2023-03-21T16:50:21.959Z,16.40
2023-03-21T16:52:57.779Z,22.00
2023-03-21T16:55:33.112Z,17.90
2023-03-21T16:58:10.371Z,22.30
2023-03-21T17:00:44.192Z,22.20
2023-03-21T17:03:19.524Z,19.00
2023-03-21T17:05:54.816Z,20.50
2023-03-21T17:08:29.718Z,23.30
2023-03-21T17:11:06.587Z,25.90
2023-03-21T17:13:39.236Z,20.80
2023-03-21T17:16:12.789Z,20.60
2023-03-21T17:18:50.120Z,25.10
2023-03-21T17:21:24.258Z,27.60
2023-03-21T17:23:56.922Z,22.10
2023-03-21T17:26:30.188Z,26.40
2023-03-21T17:29:03.066Z,18.20
2023-03-21T17:31:37.287Z,23.00
2023-03-21T17:34:11.306Z,30.50
2023-03-21T17:36:44.309Z,25.50
2023-03-21T17:39:18.401Z,23.90
2023-03-21T17:41:52.202Z,28.10
2023-03-21T17:44:25.937Z,28.50
2023-03-21T17:46:59.625Z,35.70
2023-03-21T17:49:33.150Z,26.00
2023-03-21T17:52:06.863Z,32.30
2023-03-21T17:54:39.609Z,32.40
2023-03-21T17:57:13.874Z,24.80
2023-03-21T17:59:46.928Z,26.70
2023-03-21T18:02:20.906Z,31.80
2023-03-21T18:04:54.392Z,27.10
2023-03-21T18:08:02.031Z,24.40
2023-03-21T18:10:22.093Z,37.10
2023-03-21T18:12:56.428Z,34.50
2023-03-21T18:15:31.267Z,32.10
2023-03-21T18:18:04.791Z,27.90
2023-03-21T18:20:54.454Z,25.00
2023-03-21T18:23:28.420Z,24.30
2023-03-21T18:26:01.732Z,27.50
2023-03-21T18:28:41.528Z,28.50
2023-03-21T18:31:19.940Z,34.70
2023-03-21T18:33:53.199Z,33.40
2023-03-21T18:36:28.731Z,29.60
2023-03-21T18:39:03.789Z,30.20
2023-03-21T18:41:40.589Z,27.40
2023-03-21T18:44:21.853Z,35.60
2023-03-21T18:46:58.016Z,39.50
2023-03-21T18:52:26.577Z,40.30
2023-03-21T18:54:59.365Z,40.80
2023-03-21T18:57:37.351Z,37.20
2023-03-21T19:00:14.006Z,43.50
2023-03-21T19:02:48.349Z,49.40
2023-03-21T19:05:26.225Z,42.80
2023-03-21T19:08:00.807Z,51.00
2023-03-21T19:10:34.145Z,40.90
2023-03-21T19:13:12.984Z,42.90
2023-03-21T19:15:49.509Z,39.30
2023-03-21T19:18:53.382Z,42.10
2023-03-21T19:21:17.151Z,53.00
2023-03-21T19:24:22.988Z,54.50
2023-03-21T19:26:45.824Z,48.40
2023-03-21T19:29:19.140Z,47.70
2023-03-21T19:31:52.898Z,50.20
2023-03-21T19:34:27.149Z,45.50
2023-03-21T19:37:02.654Z,38.50
2023-03-21T19:39:36.167Z,37.70
2023-03-21T19:42:16.985Z,48.80
2023-03-21T19:44:50.545Z,55.90
2023-03-21T19:47:23.194Z,46.10
2023-03-21T19:50:42.083Z,50.60
2023-03-21T19:52:49.605Z,48.50
2023-03-21T19:55:23.071Z,39.70
2023-03-21T19:57:56.544Z,39.30
2023-03-21T20:00:30.569Z,41.50
2023-03-21T20:03:07.394Z,44.90
2023-03-21T20:05:40.083Z,40.20
2023-03-21T20:08:13.755Z,45.30
2023-03-21T20:10:48.136Z,51.10
2023-03-21T20:13:21.736Z,52.40
2023-03-21T20:15:55.498Z,51.30
2023-03-21T20:18:38.293Z,50.40
2023-03-21T20:21:17.491Z,56.80
2023-03-21T20:23:51.131Z,56.30
2023-03-21T20:26:23.995Z,49.20
2023-03-21T20:29:25.170Z,54.30
2023-03-21T20:31:53.421Z,54.10
2023-03-21T20:34:26.496Z,56.10
2023-03-21T20:36:59.669Z,50.80
2023-03-21T20:39:32.672Z,63.10
2023-03-21T20:42:05.735Z,63.80
2023-03-21T20:44:56.307Z,57.80
2023-03-21T20:47:30.900Z,55.80
2023-03-21T20:50:04.976Z,62.20
2023-03-21T20:55:33.692Z,65.60
2023-03-21T20:58:27.173Z,73.00
2023-03-21T21:01:04.666Z,67.80
2023-03-21T21:03:41.492Z,68.40
2023-03-21T21:06:16.766Z,65.80
2023-03-21T21:08:56.945Z,70.00
2023-03-21T21:14:25.420Z,69.00
2023-03-21T21:17:21.021Z,61.10
2023-03-21T21:19:57.330Z,62.30
2023-03-21T21:22:32.728Z,69.00
2023-03-21T21:25:05.902Z,61.80
2023-03-21T21:27:39.626Z,57.20
2023-03-21T21:30:18.884Z,61.20
2023-03-21T21:32:52.830Z,54.20
2023-03-21T21:35:25.887Z,63.00
2023-03-21T21:37:58.928Z,50.30
2023-03-21T21:40:32.166Z,60.80
2023-03-21T21:43:05.336Z,60.80
2023-03-21T21:45:41.802Z,69.50
2023-03-21T21:48:14.700Z,67.90
2023-03-21T21:50:48.752Z,66.40
2023-03-21T21:53:21.358Z,61.30
2023-03-21T21:55:54.486Z,62.70
2023-03-21T21:58:27.603Z,66.30
2023-03-21T22:01:03.086Z,64.50
2023-03-21T22:03:41.321Z,60.10
2023-03-21T22:06:14.400Z,69.40
2023-03-21T22:08:51.924Z,81.10
2023-03-21T22:11:24.482Z,85.00
2023-03-21T22:13:57.456Z,85.80
2023-03-21T22:16:31.024Z,82.30
2023-03-21T22:19:03.887Z,56.80
2023-03-21T22:21:39.264Z,77.00
2023-03-21T22:24:12.851Z,82.30
2023-03-21T22:26:45.413Z,73.70
2023-03-21T22:29:22.044Z,62.60
2023-03-21T22:31:55.022Z,84.10
2023-03-21T22:34:28.829Z,71.30
2023-03-21T22:37:02.852Z,80.80
2023-03-21T22:39:36.143Z,64.80
2023-03-21T22:42:15.672Z,74.70
2023-03-21T22:44:48.186Z,64.30
2023-03-21T22:47:21.227Z,80.50
2023-03-21T22:49:55.114Z,93.60
2023-03-21T22:52:27.871Z,90.70
2023-03-21T22:55:02.300Z,84.50
2023-03-21T22:57:35.707Z,82.40
2023-03-21T23:00:13.785Z,71.70
2023-03-21T23:02:48.275Z,73.00
2023-03-21T23:05:21.250Z,83.80
2023-03-21T23:08:00.759Z,89.70
2023-03-21T23:10:33.477Z,85.50
2023-03-21T23:13:06.046Z,74.80
2023-03-21T23:15:45.139Z,57.90
2023-03-21T23:18:20.392Z,70.50
2023-03-21T23:20:53.920Z,75.30
2023-03-21T23:23:26.847Z,82.40
2023-03-21T23:25:59.550Z,58.80
2023-03-21T23:28:32.465Z,60.00
2023-03-21T23:31:11.630Z,59.60
2023-03-21T23:33:44.904Z,44.10
2023-03-21T23:36:20.361Z,54.40
2023-03-21T23:38:53.492Z,78.60
2023-03-21T23:41:28.092Z,47.90
2023-03-21T23:44:01.181Z,43.70
2023-03-21T23:46:39.292Z,52.00
2023-03-21T23:49:12.240Z,35.10
2023-03-21T23:51:45.058Z,40.30
2023-03-21T23:54:17.680Z,42.10
2023-03-21T23:56:50.273Z,51.40
2023-03-21T23:59:25.660Z,58.40
